createdAt,value
2022-11-15T00:01:11.104Z,9.86
2022-11-15T00:03:39.389Z,9.88
2022-11-15T00:06:07.741Z,9.94
2022-11-15T00:08:36.068Z,9.86
2022-11-15T00:11:04.771Z,10.06
2022-11-15T00:13:33.304Z,10.06
2022-11-15T00:16:02.682Z,10.13
2022-11-15T00:18:32.611Z,10.00
2022-11-15T00:21:06.069Z,10.14
2022-11-15T00:23:34.714Z,10.13
2022-11-15T00:26:03.367Z,10.19
2022-11-15T00:28:31.810Z,10.14
2022-11-15T00:31:03.379Z,10.22
2022-11-15T00:33:33.455Z,10.16
2022-11-15T00:36:03.774Z,10.27
2022-11-15T00:38:34.434Z,10.26
2022-11-15T00:41:08.871Z,10.29
2022-11-15T00:43:37.799Z,10.30
2022-11-15T00:46:06.149Z,10.42
2022-11-15T00:48:35.843Z,10.43
2022-11-15T00:51:04.112Z,10.39
2022-11-15T00:53:32.714Z,10.42
2022-11-15T00:56:01.523Z,10.50
2022-11-15T00:58:29.810Z,10.44
2022-11-15T01:00:58.116Z,10.44
2022-11-15T01:03:26.468Z,10.39
2022-11-15T01:05:56.410Z,10.47
2022-11-15T01:08:24.700Z,10.42
2022-11-15T01:10:52.983Z,10.55
2022-11-15T01:13:21.233Z,10.65
2022-11-15T01:15:49.755Z,10.50
2022-11-15T01:18:18.033Z,10.56
2022-11-15T01:20:46.298Z,10.55
2022-11-15T01:23:15.979Z,10.54
2022-11-15T01:25:44.530Z,10.51
2022-11-15T01:28:12.811Z,10.47
2022-11-15T01:30:41.136Z,10.53
2022-11-15T01:33:09.715Z,10.55
2022-11-15T01:35:41.400Z,10.63
2022-11-15T01:38:09.748Z,10.61
2022-11-15T01:40:39.421Z,10.58
2022-11-15T01:43:22.549Z,10.61
2022-11-15T01:45:53.040Z,10.61
2022-11-15T01:48:21.343Z,10.68
2022-11-15T01:50:49.592Z,10.60
2022-11-15T01:53:17.891Z,10.68
2022-11-15T01:55:47.544Z,10.63
2022-11-15T01:58:15.792Z,10.53
2022-11-15T02:00:44.125Z,10.50
2022-11-15T02:03:12.423Z,10.55
2022-11-15T02:05:40.720Z,10.55
2022-11-15T02:08:08.998Z,10.62
2022-11-15T02:10:37.595Z,10.59
2022-11-15T02:13:07.314Z,10.59
2022-11-15T02:15:39.616Z,10.78
2022-11-15T02:18:13.254Z,10.75
2022-11-15T02:20:51.860Z,10.68
2022-11-15T02:23:38.053Z,10.68
2022-11-15T02:26:19.549Z,10.65
2022-11-15T02:28:52.097Z,10.74
2022-11-15T02:31:24.750Z,10.89
2022-11-15T02:33:55.621Z,10.78
2022-11-15T02:36:29.326Z,10.95
2022-11-15T02:39:00.973Z,10.87
2022-11-15T02:41:32.145Z,10.91
2022-11-15T02:44:02.318Z,10.88
2022-11-15T02:46:49.224Z,10.96
2022-11-15T02:49:17.524Z,11.06
2022-11-15T02:51:46.672Z,11.06
2022-11-15T02:54:16.466Z,11.23
2022-11-15T02:56:45.545Z,11.12
2022-11-15T02:59:21.314Z,11.09
2022-11-15T03:01:58.574Z,11.06
2022-11-15T03:04:30.527Z,11.23
2022-11-15T03:07:02.806Z,11.06
2022-11-15T03:09:34.956Z,11.04
2022-11-15T03:12:05.882Z,11.22
2022-11-15T03:14:35.943Z,11.10
2022-11-15T03:17:09.450Z,10.96
2022-11-15T03:19:39.768Z,11.16
2022-11-15T03:22:08.767Z,11.02
2022-11-15T03:24:37.481Z,11.05
2022-11-15T03:27:05.829Z,11.03
2022-11-15T03:29:35.169Z,11.04
2022-11-15T03:32:07.818Z,11.11
2022-11-15T03:34:38.629Z,11.09
2022-11-15T03:37:06.919Z,11.19
2022-11-15T03:39:35.202Z,11.17
2022-11-15T03:42:09.717Z,11.12
2022-11-15T03:44:42.992Z,11.09
2022-11-15T03:47:17.648Z,11.27
2022-11-15T03:49:47.557Z,11.23
2022-11-15T03:52:16.328Z,11.14
2022-11-15T03:54:51.329Z,11.34
2022-11-15T03:57:19.660Z,11.36
2022-11-15T03:59:47.949Z,11.22
2022-11-15T04:02:17.579Z,11.38
2022-11-15T04:04:46.398Z,11.33
2022-11-15T04:07:14.761Z,11.36
2022-11-15T04:09:57.335Z,11.35
2022-11-15T04:12:31.994Z,11.30
2022-11-15T04:15:09.562Z,11.23
2022-11-15T04:17:40.817Z,11.29
2022-11-15T04:20:25.165Z,11.23
2022-11-15T04:23:09.107Z,11.39
2022-11-15T04:25:37.454Z,11.37
2022-11-15T04:28:06.196Z,11.30
2022-11-15T04:30:34.485Z,11.23
2022-11-15T04:33:04.137Z,11.39
2022-11-15T04:35:32.663Z,11.30
2022-11-15T04:37:59.939Z,11.31
2022-11-15T04:40:28.246Z,11.23
2022-11-15T04:43:03.285Z,11.31
2022-11-15T04:45:32.063Z,11.27
2022-11-15T04:48:00.311Z,11.31
2022-11-15T04:50:29.985Z,11.25
2022-11-15T04:52:58.270Z,11.27
2022-11-15T04:55:26.882Z,11.29
2022-11-15T04:58:01.443Z,11.34
2022-11-15T05:00:30.365Z,11.27
2022-11-15T05:03:12.813Z,11.30
2022-11-15T05:05:42.539Z,11.27
2022-11-15T05:08:10.782Z,11.42
2022-11-15T05:10:39.760Z,11.36
2022-11-15T05:13:08.063Z,11.39
2022-11-15T05:15:36.348Z,11.38
2022-11-15T05:18:04.633Z,11.39
2022-11-15T05:20:32.897Z,11.32
2022-11-15T05:23:02.549Z,11.36
2022-11-15T05:25:31.144Z,11.37
2022-11-15T05:27:59.533Z,11.30
2022-11-15T05:30:27.815Z,11.27
2022-11-15T05:32:56.059Z,11.26
2022-11-15T05:35:37.051Z,11.25
2022-11-15T05:38:06.861Z,11.31
2022-11-15T05:40:35.131Z,11.44
2022-11-15T05:43:03.426Z,11.38
2022-11-15T05:45:32.019Z,11.35
2022-11-15T05:48:00.308Z,11.44
2022-11-15T05:50:28.576Z,11.39
2022-11-15T05:53:00.889Z,11.32
2022-11-15T05:55:37.257Z,11.35
2022-11-15T05:58:05.592Z,11.38
2022-11-15T06:00:33.847Z,11.57
2022-11-15T06:03:02.132Z,11.38
2022-11-15T06:05:30.381Z,11.37
2022-11-15T06:08:00.049Z,11.35
2022-11-15T06:10:29.423Z,11.29
2022-11-15T06:13:03.901Z,11.36
2022-11-15T06:15:32.244Z,11.33
2022-11-15T06:18:00.530Z,11.29
2022-11-15T06:20:28.936Z,11.29
2022-11-15T06:23:00.169Z,11.22
2022-11-15T06:25:28.513Z,11.29
2022-11-15T06:27:57.293Z,11.29
2022-11-15T06:30:27.272Z,11.37
2022-11-15T06:33:01.220Z,11.33
2022-11-15T06:35:29.572Z,11.31
2022-11-15T06:37:57.901Z,11.43
2022-11-15T06:40:26.164Z,11.40
2022-11-15T06:42:59.357Z,11.33
2022-11-15T06:45:29.023Z,11.16
2022-11-15T06:47:57.323Z,11.12
2022-11-15T06:50:26.536Z,11.13
2022-11-15T06:52:55.675Z,11.14
2022-11-15T06:55:25.387Z,11.16
2022-11-15T06:57:54.153Z,11.14
2022-11-15T07:00:23.372Z,11.12
2022-11-15T07:02:54.218Z,11.03
2022-11-15T07:05:22.774Z,11.05
2022-11-15T07:07:55.249Z,11.00
2022-11-15T07:10:25.315Z,10.97
2022-11-15T07:12:53.942Z,10.91
2022-11-15T07:15:23.737Z,10.91
2022-11-15T07:17:53.398Z,11.00
2022-11-15T07:20:22.734Z,10.98
2022-11-15T07:22:51.010Z,10.99
2022-11-15T07:25:22.175Z,10.99
2022-11-15T07:27:57.707Z,10.99
2022-11-15T07:30:26.824Z,10.92
2022-11-15T07:32:57.004Z,10.88
2022-11-15T07:35:25.328Z,10.75
2022-11-15T07:37:58.216Z,10.76
2022-11-15T07:40:26.613Z,10.78
2022-11-15T07:42:54.897Z,10.63
2022-11-15T07:45:23.568Z,10.67
2022-11-15T07:47:52.019Z,10.66
2022-11-15T07:50:21.689Z,10.56
2022-11-15T07:52:49.966Z,10.59
2022-11-15T07:55:18.663Z,10.62
2022-11-15T07:57:46.950Z,10.66
2022-11-15T08:00:17.882Z,10.68
2022-11-15T08:02:47.913Z,10.71
2022-11-15T08:05:16.646Z,10.85
2022-11-15T08:07:46.306Z,10.81
2022-11-15T08:10:15.102Z,10.61
2022-11-15T08:12:43.541Z,10.70
2022-11-15T08:15:12.493Z,10.64
2022-11-15T08:17:40.765Z,10.77
2022-11-15T08:20:09.984Z,10.74
2022-11-15T08:22:38.274Z,10.74
2022-11-15T08:25:09.289Z,10.83
2022-11-15T08:27:37.599Z,10.77
2022-11-15T08:30:06.553Z,10.78
2022-11-15T08:32:35.070Z,10.74
2022-11-15T08:35:04.779Z,10.74
2022-11-15T08:37:33.289Z,10.86
2022-11-15T08:40:01.642Z,11.02
2022-11-15T08:42:31.308Z,11.15
2022-11-15T08:44:59.558Z,11.01
2022-11-15T08:47:27.848Z,11.16
2022-11-15T08:49:56.092Z,11.06
2022-11-15T08:52:27.157Z,10.98
2022-11-15T08:54:55.430Z,11.03
2022-11-15T08:57:23.705Z,11.06
2022-11-15T08:59:53.380Z,11.16
2022-11-15T09:02:21.708Z,11.19
2022-11-15T09:04:49.980Z,11.15
2022-11-15T09:07:18.319Z,11.16
2022-11-15T09:09:46.662Z,11.22
2022-11-15T09:12:15.065Z,11.15
2022-11-15T09:14:43.418Z,11.20
2022-11-15T09:17:16.448Z,11.23
2022-11-15T09:19:50.053Z,11.21
2022-11-15T09:22:19.694Z,11.41
2022-11-15T09:24:48.361Z,11.42
2022-11-15T09:27:16.643Z,11.49
2022-11-15T09:29:44.890Z,11.26
2022-11-15T09:32:14.569Z,11.24
2022-11-15T09:34:42.872Z,11.43
2022-11-15T09:37:11.586Z,11.42
2022-11-15T09:39:58.634Z,11.53
2022-11-15T09:42:34.546Z,11.44
2022-11-15T09:45:14.874Z,11.70
2022-11-15T09:48:01.759Z,11.61
2022-11-15T09:50:37.005Z,11.71
2022-11-15T09:53:57.571Z,11.68
2022-11-15T09:56:20.836Z,11.65
2022-11-15T09:58:53.413Z,11.49
2022-11-15T10:01:25.246Z,11.48
2022-11-15T10:03:54.944Z,11.73
2022-11-15T10:06:25.357Z,11.70
2022-11-15T10:08:56.938Z,11.92
2022-11-15T10:11:42.504Z,11.72
2022-11-15T10:14:13.612Z,11.72
2022-11-15T10:17:01.308Z,11.98
2022-11-15T10:19:33.338Z,11.77
2022-11-15T10:22:08.861Z,11.99
2022-11-15T10:24:38.057Z,11.65
2022-11-15T10:27:10.438Z,11.69
2022-11-15T10:29:38.730Z,11.78
2022-11-15T10:32:10.179Z,11.87
2022-11-15T10:34:43.949Z,11.80
2022-11-15T10:37:12.333Z,11.84
2022-11-15T10:39:40.978Z,11.90
2022-11-15T10:42:18.428Z,11.90
2022-11-15T10:44:47.179Z,11.91
2022-11-15T10:47:27.669Z,12.18
2022-11-15T10:49:59.442Z,12.12
2022-11-15T10:52:28.798Z,12.28
2022-11-15T10:55:44.143Z,12.17
2022-11-15T10:58:23.795Z,12.08
2022-11-15T11:00:52.135Z,12.07
2022-11-15T11:03:30.504Z,11.91
2022-11-15T11:06:10.093Z,12.26
2022-11-15T11:08:38.460Z,12.34
2022-11-15T11:11:07.206Z,12.19
2022-11-15T11:13:38.340Z,12.17
2022-11-15T11:16:24.374Z,12.24
2022-11-15T11:18:57.548Z,12.45
2022-11-15T11:21:34.189Z,12.38
2022-11-15T11:24:08.015Z,12.49
2022-11-15T11:26:45.043Z,12.51
2022-11-15T11:29:23.449Z,12.61
2022-11-15T11:32:12.536Z,12.49
2022-11-15T11:34:47.335Z,12.55
2022-11-15T11:37:20.433Z,12.35
2022-11-15T11:39:54.468Z,12.33
2022-11-15T11:42:29.546Z,12.40
2022-11-15T11:45:01.122Z,12.61
2022-11-15T11:47:34.818Z,12.46
2022-11-15T11:50:04.610Z,12.52
2022-11-15T11:52:36.749Z,12.54
2022-11-15T11:55:08.147Z,12.53
2022-11-15T11:57:42.086Z,12.40
2022-11-15T12:00:18.497Z,12.54
2022-11-15T12:02:49.783Z,12.40
2022-11-15T12:05:20.918Z,12.56
2022-11-15T12:07:51.818Z,12.50
2022-11-15T12:10:24.906Z,12.82
2022-11-15T12:12:57.919Z,12.72
2022-11-15T12:15:27.525Z,12.76
2022-11-15T12:17:57.567Z,12.58
2022-11-15T12:20:27.491Z,12.55
2022-11-15T12:22:58.394Z,12.64
2022-11-15T12:25:32.063Z,12.54
2022-11-15T12:28:03.130Z,12.62
2022-11-15T12:30:44.816Z,12.91
2022-11-15T12:33:33.804Z,12.59
2022-11-15T12:36:03.115Z,12.71
2022-11-15T12:38:54.283Z,12.80
2022-11-15T12:41:23.645Z,12.82
2022-11-15T12:43:52.380Z,12.88
2022-11-15T12:46:23.971Z,12.78
2022-11-15T12:48:55.575Z,12.74
2022-11-15T12:51:25.130Z,12.84
2022-11-15T12:53:54.840Z,12.99
2022-11-15T12:56:25.093Z,12.82
2022-11-15T12:58:55.897Z,12.69
2022-11-15T13:01:55.656Z,12.68
2022-11-15T13:04:27.388Z,12.63
2022-11-15T13:06:56.906Z,12.84
2022-11-15T13:09:54.760Z,12.67
2022-11-15T13:12:54.446Z,12.75
2022-11-15T13:15:48.468Z,12.60
2022-11-15T13:18:35.889Z,12.58
2022-11-15T13:21:27.494Z,12.60
2022-11-15T13:23:57.096Z,12.98
2022-11-15T13:26:27.505Z,12.92
2022-11-15T13:28:57.131Z,12.65
2022-11-15T13:31:28.677Z,12.82
2022-11-15T13:33:58.517Z,12.78
2022-11-15T13:36:28.740Z,12.73
2022-11-15T13:38:59.175Z,12.61
2022-11-15T13:41:30.465Z,12.51
2022-11-15T13:44:00.792Z,12.44
2022-11-15T13:46:29.769Z,12.36
2022-11-15T13:48:59.282Z,12.72
2022-11-15T13:51:32.065Z,12.46
2022-11-15T13:54:03.731Z,12.48
2022-11-15T13:56:33.662Z,12.63
2022-11-15T13:59:02.074Z,12.60
2022-11-15T14:01:31.511Z,12.62
2022-11-15T14:04:01.129Z,12.85
2022-11-15T14:06:30.647Z,12.75
2022-11-15T14:09:02.437Z,12.77
2022-11-15T14:11:32.556Z,12.97
2022-11-15T14:14:15.166Z,13.01
2022-11-15T14:16:44.737Z,12.89
2022-11-15T14:19:14.136Z,12.90
2022-11-15T14:22:10.980Z,12.78
2022-11-15T14:24:39.595Z,12.60
2022-11-15T14:27:25.264Z,12.70
2022-11-15T14:29:56.524Z,12.47
2022-11-15T14:32:28.038Z,12.45
2022-11-15T14:34:57.719Z,12.44
2022-11-15T14:37:26.990Z,12.59
2022-11-15T14:39:55.403Z,12.53
2022-11-15T14:42:25.442Z,12.55
2022-11-15T14:44:53.989Z,12.55
2022-11-15T14:47:22.358Z,12.58
2022-11-15T14:49:50.774Z,12.77
2022-11-15T14:52:31.823Z,12.58
2022-11-15T14:55:02.517Z,12.63
2022-11-15T14:57:32.446Z,12.50
2022-11-15T15:00:00.733Z,12.66
2022-11-15T15:02:29.267Z,12.41
2022-11-15T15:05:02.178Z,12.43
2022-11-15T15:07:30.985Z,12.46
2022-11-15T15:10:32.383Z,12.61
2022-11-15T15:12:49.813Z,12.61
2022-11-15T15:15:19.373Z,12.47
2022-11-15T15:17:47.989Z,12.60
2022-11-15T15:20:16.702Z,12.50
2022-11-15T15:22:45.045Z,12.38
2022-11-15T15:25:23.111Z,12.53
2022-11-15T15:27:52.851Z,12.51
2022-11-15T15:30:21.859Z,12.32
2022-11-15T15:32:50.350Z,12.50
2022-11-15T15:35:20.602Z,12.49
2022-11-15T15:37:49.574Z,12.45
2022-11-15T15:40:19.582Z,12.42
2022-11-15T15:42:48.121Z,12.19
2022-11-15T15:45:18.316Z,12.27
2022-11-15T15:47:49.396Z,12.18
2022-11-15T15:50:23.480Z,12.38
2022-11-15T15:52:51.944Z,12.18
2022-11-15T15:55:20.543Z,12.24
2022-11-15T15:57:49.025Z,12.36
2022-11-15T16:00:20.403Z,12.24
2022-11-15T16:03:08.888Z,12.24
2022-11-15T16:05:39.337Z,12.12
2022-11-15T16:08:07.684Z,12.19
2022-11-15T16:10:37.842Z,12.10
2022-11-15T16:13:06.641Z,12.36
2022-11-15T16:15:36.310Z,12.29
2022-11-15T16:18:05.842Z,12.21
2022-11-15T16:20:37.134Z,12.31
2022-11-15T16:23:09.058Z,12.36
2022-11-15T16:25:42.953Z,12.22
2022-11-15T16:28:18.846Z,12.14
2022-11-15T16:30:52.436Z,12.11
2022-11-15T16:33:25.313Z,12.19
2022-11-15T16:35:54.118Z,12.11
2022-11-15T16:38:22.514Z,11.99
2022-11-15T16:40:50.847Z,12.08
2022-11-15T16:43:19.181Z,12.07
2022-11-15T16:45:49.011Z,12.05
2022-11-15T16:48:23.315Z,12.19
2022-11-15T16:50:51.624Z,12.10
2022-11-15T16:53:20.038Z,12.01
2022-11-15T16:55:48.532Z,12.05
2022-11-15T16:58:16.888Z,12.05
2022-11-15T17:00:45.439Z,12.11
2022-11-15T17:03:15.317Z,12.16
2022-11-15T17:05:43.611Z,12.27
2022-11-15T17:08:11.991Z,12.22
2022-11-15T17:10:48.024Z,12.14
2022-11-15T17:13:16.744Z,12.15
2022-11-15T17:15:45.037Z,12.28
2022-11-15T17:18:15.718Z,12.13
2022-11-15T17:20:44.153Z,12.24
2022-11-15T17:23:14.879Z,12.23
2022-11-15T17:25:43.317Z,12.17
2022-11-15T17:28:12.872Z,12.27
2022-11-15T17:30:45.272Z,12.17
2022-11-15T17:33:16.929Z,12.19
2022-11-15T17:35:45.370Z,12.09
2022-11-15T17:38:14.577Z,12.17
2022-11-15T17:40:43.024Z,12.20
2022-11-15T17:43:11.747Z,12.16
2022-11-15T17:45:42.438Z,12.10
2022-11-15T17:48:10.717Z,12.04
2022-11-15T17:50:40.401Z,12.19
2022-11-15T17:53:09.956Z,12.11
2022-11-15T17:55:38.257Z,12.08
2022-11-15T17:58:06.577Z,12.14
2022-11-15T18:00:41.922Z,12.23
2022-11-15T18:03:17.464Z,12.20
2022-11-15T18:05:47.698Z,12.31
2022-11-15T18:08:18.602Z,12.15
2022-11-15T18:10:48.431Z,12.12
2022-11-15T18:13:16.721Z,12.18
2022-11-15T18:15:45.045Z,12.25
2022-11-15T18:18:13.362Z,12.17
2022-11-15T18:20:42.533Z,12.17
2022-11-15T18:23:12.188Z,12.20
2022-11-15T18:25:40.476Z,12.24
2022-11-15T18:28:08.761Z,12.11
2022-11-15T18:30:39.729Z,12.17
2022-11-15T18:33:08.082Z,12.08
2022-11-15T18:35:37.155Z,12.19
2022-11-15T18:38:05.480Z,12.18
2022-11-15T18:40:35.183Z,12.27
2022-11-15T18:43:03.481Z,12.26
2022-11-15T18:45:32.274Z,12.30
2022-11-15T18:48:00.600Z,12.29
2022-11-15T18:50:28.918Z,12.08
2022-11-15T18:52:57.319Z,12.11
2022-11-15T18:55:26.144Z,12.07
2022-11-15T18:57:56.153Z,12.03
2022-11-15T19:00:24.665Z,12.09
2022-11-15T19:02:55.435Z,12.04
2022-11-15T19:05:23.857Z,12.18
2022-11-15T19:07:52.335Z,12.11
2022-11-15T19:10:20.648Z,11.98
2022-11-15T19:12:49.577Z,12.09
2022-11-15T19:15:19.242Z,11.96
2022-11-15T19:17:48.033Z,11.99
2022-11-15T19:20:16.498Z,11.91
2022-11-15T19:22:44.788Z,12.02
2022-11-15T19:25:13.130Z,11.90
2022-11-15T19:27:41.728Z,11.98
2022-11-15T19:30:11.037Z,12.00
2022-11-15T19:32:40.767Z,11.85
2022-11-15T19:35:09.466Z,11.79
2022-11-15T19:37:41.608Z,11.80
2022-11-15T19:40:12.754Z,11.70
2022-11-15T19:42:42.600Z,11.74
2022-11-15T19:45:11.781Z,11.66
2022-11-15T19:47:41.531Z,11.66
2022-11-15T19:50:10.675Z,11.70
2022-11-15T19:52:39.160Z,11.52
2022-11-15T19:55:08.249Z,11.60
2022-11-15T19:57:36.625Z,11.68
2022-11-15T20:00:07.544Z,11.52
2022-11-15T20:02:36.160Z,11.57
2022-11-15T20:05:06.145Z,11.60
2022-11-15T20:07:53.048Z,11.65
2022-11-15T20:10:21.339Z,11.54
2022-11-15T20:12:49.651Z,11.44
2022-11-15T20:15:18.375Z,11.35
2022-11-15T20:17:46.738Z,11.39
2022-11-15T20:20:16.966Z,11.36
2022-11-15T20:22:45.253Z,11.35
2022-11-15T20:25:13.814Z,11.30
2022-11-15T20:27:42.175Z,11.35
2022-11-15T20:30:11.750Z,11.43
2022-11-15T20:32:40.520Z,11.27
2022-11-15T20:35:09.176Z,11.35
2022-11-15T20:37:38.855Z,11.44
2022-11-15T20:40:07.952Z,11.38
2022-11-15T20:42:36.532Z,11.25
2022-11-15T20:45:05.160Z,11.22
2022-11-15T20:47:33.617Z,11.29
2022-11-15T20:50:20.788Z,11.28
2022-11-15T20:52:51.106Z,11.20
2022-11-15T20:55:19.362Z,11.17
2022-11-15T20:57:48.999Z,11.15
2022-11-15T21:00:17.677Z,11.22
2022-11-15T21:02:45.930Z,11.13
2022-11-15T21:05:14.515Z,11.20
2022-11-15T21:07:42.819Z,11.27
2022-11-15T21:10:26.389Z,11.12
2022-11-15T21:12:54.672Z,11.14
2022-11-15T21:15:22.957Z,11.19
2022-11-15T21:17:51.226Z,11.18
2022-11-15T21:20:19.626Z,11.12
2022-11-15T21:22:47.908Z,11.17
2022-11-15T21:25:17.589Z,11.14
2022-11-15T21:27:45.870Z,11.15
2022-11-15T21:30:14.727Z,11.05
2022-11-15T21:32:43.826Z,11.10
2022-11-15T21:35:12.081Z,11.24
2022-11-15T21:37:40.374Z,11.12
2022-11-15T21:40:10.004Z,11.20
2022-11-15T21:42:39.668Z,11.20
2022-11-15T21:45:08.962Z,11.04
2022-11-15T21:47:38.397Z,11.10
2022-11-15T21:50:09.035Z,11.01
2022-11-15T21:52:37.510Z,11.14
2022-11-15T21:55:06.118Z,11.13
2022-11-15T21:57:34.449Z,11.19
2022-11-15T22:00:17.924Z,11.09
2022-11-15T22:02:46.512Z,11.09
2022-11-15T22:05:14.795Z,11.08
2022-11-15T22:07:43.071Z,11.02
2022-11-15T22:10:11.624Z,10.98
2022-11-15T22:12:40.672Z,11.08
2022-11-15T22:15:10.956Z,10.96
2022-11-15T22:17:53.025Z,11.08
2022-11-15T22:20:43.572Z,11.09
2022-11-15T22:23:11.518Z,11.03
2022-11-15T22:25:40.323Z,11.03
2022-11-15T22:28:08.636Z,11.00
2022-11-15T22:30:38.603Z,11.16
2022-11-15T22:33:06.893Z,11.18
2022-11-15T22:35:35.715Z,11.02
2022-11-15T22:38:04.287Z,11.16
2022-11-15T22:40:32.588Z,10.97
2022-11-15T22:43:00.889Z,10.99
2022-11-15T22:45:29.153Z,10.99
2022-11-15T22:47:59.154Z,11.02
2022-11-15T22:50:27.430Z,10.97
2022-11-15T22:52:55.774Z,10.87
2022-11-15T22:55:24.331Z,10.93
2022-11-15T22:57:52.621Z,10.95
2022-11-15T23:00:21.022Z,10.95
2022-11-15T23:02:53.240Z,11.00
2022-11-15T23:05:23.977Z,11.01
2022-11-15T23:07:52.273Z,10.92
2022-11-15T23:10:34.429Z,11.01
2022-11-15T23:13:18.164Z,11.08
2022-11-15T23:16:01.407Z,11.04
2022-11-15T23:18:30.299Z,11.13
2022-11-15T23:21:00.184Z,11.02
2022-11-15T23:23:27.768Z,11.01
2022-11-15T23:25:59.956Z,11.09
2022-11-15T23:28:28.302Z,11.00
2022-11-15T23:31:10.666Z,10.98
2022-11-15T23:33:52.822Z,10.93
2022-11-15T23:36:22.506Z,11.01
2022-11-15T23:38:51.138Z,11.09
2022-11-15T23:41:21.911Z,10.97
2022-11-15T23:43:50.177Z,10.95
2022-11-15T23:46:18.473Z,10.91
2022-11-15T23:48:46.746Z,10.99
2022-11-15T23:51:15.047Z,11.06
2022-11-15T23:53:44.702Z,10.95
2022-11-15T23:56:13.774Z,11.06
2022-11-15T23:58:42.416Z,11.02
